createdAt,value
2022-12-17T00:00:28.297Z,67.70
2022-12-17T00:03:16.504Z,69.03
2022-12-17T00:06:03.949Z,72.43
2022-12-17T00:08:49.321Z,76.20
2022-12-17T00:11:34.631Z,71.50
2022-12-17T00:14:19.813Z,70.15
2022-12-17T00:17:19.926Z,59.72
2022-12-17T00:20:05.526Z,62.53
2022-12-17T00:22:52.596Z,60.08
2022-12-17T00:25:39.050Z,56.15
2022-12-17T00:28:28.726Z,64.55
2022-12-17T00:31:14.065Z,60.72
2022-12-17T00:33:59.861Z,49.53
2022-12-17T00:36:45.737Z,59.30
2022-12-17T00:39:32.643Z,63.15
2022-12-17T00:42:18.344Z,55.65
2022-12-17T00:45:03.458Z,50.83
2022-12-17T00:47:49.175Z,59.40
2022-12-17T00:50:34.487Z,55.10
2022-12-17T00:53:19.754Z,52.83
2022-12-17T00:56:06.766Z,54.17
2022-12-17T00:58:52.028Z,49.70
2022-12-17T01:01:37.691Z,49.28
2022-12-17T01:04:23.583Z,53.95
2022-12-17T01:07:09.145Z,51.17
2022-12-17T01:09:55.372Z,56.40
2022-12-17T01:12:42.878Z,52.22
2022-12-17T01:15:28.786Z,50.60
2022-12-17T01:18:14.374Z,56.42
2022-12-17T01:21:08.504Z,57.08
2022-12-17T01:23:53.628Z,57.80
2022-12-17T01:26:41.522Z,56.78
2022-12-17T01:29:28.655Z,57.25
2022-12-17T01:32:14.092Z,53.70
2022-12-17T01:35:10.731Z,52.15
2022-12-17T01:38:10.679Z,50.92
2022-12-17T01:40:56.136Z,48.90
2022-12-17T01:43:52.017Z,65.40
2022-12-17T01:46:39.598Z,54.15
2022-12-17T01:49:27.733Z,53.40
2022-12-17T01:52:12.978Z,54.03
2022-12-17T01:55:01.832Z,52.45
2022-12-17T01:57:47.758Z,57.55
2022-12-17T02:00:34.891Z,42.42
2022-12-17T02:03:22.883Z,60.13
2022-12-17T02:06:19.420Z,56.55
2022-12-17T02:09:11.320Z,55.67
2022-12-17T02:12:06.100Z,52.55
2022-12-17T02:14:56.430Z,54.60
2022-12-17T02:17:49.235Z,58.08
2022-12-17T02:20:42.891Z,61.50
2022-12-17T02:23:38.560Z,54.40
2022-12-17T02:26:31.489Z,52.92
2022-12-17T02:29:20.584Z,55.50
2022-12-17T02:32:06.971Z,49.92
2022-12-17T02:35:02.101Z,57.17
2022-12-17T02:37:47.710Z,58.47
2022-12-17T02:40:33.367Z,52.50
2022-12-17T02:43:19.672Z,51.72
2022-12-17T02:46:07.306Z,56.08
2022-12-17T02:48:53.662Z,56.35
2022-12-17T02:51:40.094Z,50.10
2022-12-17T02:54:26.805Z,51.47
2022-12-17T02:57:13.431Z,52.95
2022-12-17T02:59:58.843Z,56.15
2022-12-17T03:02:45.011Z,52.25
2022-12-17T03:05:46.129Z,48.92
2022-12-17T03:08:34.336Z,55.95
2022-12-17T03:11:19.955Z,51.50
2022-12-17T03:14:05.646Z,54.83
2022-12-17T03:16:51.300Z,58.22
2022-12-17T03:19:38.360Z,51.28
2022-12-17T03:22:35.195Z,59.95
2022-12-17T03:25:20.625Z,52.65
2022-12-17T03:28:06.014Z,60.75
2022-12-17T03:30:51.385Z,56.53
2022-12-17T03:33:37.305Z,59.05
2022-12-17T03:36:24.624Z,54.97
2022-12-17T03:39:09.938Z,61.67
2022-12-17T03:41:55.168Z,66.13
2022-12-17T03:44:40.796Z,60.67
2022-12-17T03:47:26.152Z,64.40
2022-12-17T03:50:11.783Z,68.00
2022-12-17T03:52:58.576Z,59.22
2022-12-17T03:55:44.104Z,57.38
2022-12-17T03:58:29.433Z,60.63
2022-12-17T04:01:15.011Z,64.00
2022-12-17T04:04:00.560Z,57.17
2022-12-17T04:06:46.245Z,64.20
2022-12-17T04:09:32.920Z,62.13
2022-12-17T04:12:18.142Z,59.50
2022-12-17T04:15:03.910Z,61.22
2022-12-17T04:17:49.673Z,70.22
2022-12-17T04:20:35.316Z,62.00
2022-12-17T04:23:20.615Z,67.30
2022-12-17T04:26:07.617Z,61.65
2022-12-17T04:28:52.993Z,58.28
2022-12-17T04:31:38.333Z,60.92
2022-12-17T04:34:24.014Z,60.53
2022-12-17T04:37:09.663Z,70.10
2022-12-17T04:40:03.583Z,68.65
2022-12-17T04:42:50.433Z,70.30
2022-12-17T04:45:35.854Z,58.78
2022-12-17T04:48:21.919Z,62.88
2022-12-17T04:51:07.515Z,60.78
2022-12-17T04:53:53.275Z,55.80
2022-12-17T04:56:39.528Z,59.35
2022-12-17T04:59:26.484Z,62.15
2022-12-17T05:02:12.391Z,61.80
2022-12-17T05:04:58.049Z,65.05
2022-12-17T05:07:43.900Z,62.22
2022-12-17T05:10:29.312Z,64.45
2022-12-17T05:13:16.167Z,55.00
2022-12-17T05:16:03.202Z,61.40
2022-12-17T05:18:49.047Z,57.75
2022-12-17T05:21:34.699Z,63.88
2022-12-17T05:24:20.444Z,64.43
2022-12-17T05:27:06.391Z,60.63
2022-12-17T05:29:52.146Z,59.67
2022-12-17T05:32:38.959Z,65.25
2022-12-17T05:35:25.301Z,62.20
2022-12-17T05:38:10.947Z,59.38
2022-12-17T05:40:56.421Z,57.63
2022-12-17T05:43:41.557Z,63.17
2022-12-17T05:46:26.845Z,68.55
2022-12-17T05:49:13.959Z,60.50
2022-12-17T05:51:59.469Z,62.95
2022-12-17T05:54:45.139Z,62.17
2022-12-17T05:57:30.561Z,59.15
2022-12-17T06:00:15.876Z,63.65
2022-12-17T06:03:01.491Z,59.95
2022-12-17T06:05:48.812Z,60.58
2022-12-17T06:08:34.145Z,67.57
2022-12-17T06:11:19.896Z,66.75
2022-12-17T06:14:06.019Z,68.90
2022-12-17T06:16:51.608Z,61.03
2022-12-17T06:19:36.094Z,67.28
2022-12-17T06:22:23.286Z,61.65
2022-12-17T06:25:08.826Z,77.65
2022-12-17T06:27:54.126Z,76.88
2022-12-17T06:30:40.024Z,67.47
2022-12-17T06:33:27.494Z,71.20
2022-12-17T06:36:21.299Z,69.97
2022-12-17T06:39:09.474Z,69.78
2022-12-17T06:42:02.041Z,66.28
2022-12-17T06:44:49.531Z,66.43
2022-12-17T06:47:46.491Z,63.25
2022-12-17T06:50:32.240Z,80.88
2022-12-17T06:53:19.806Z,71.28
2022-12-17T06:56:06.704Z,75.35
2022-12-17T06:58:52.098Z,71.85
2022-12-17T07:01:37.779Z,74.30
2022-12-17T07:04:24.448Z,70.97
2022-12-17T07:07:10.153Z,77.18
2022-12-17T07:09:55.536Z,78.97
2022-12-17T07:12:44.241Z,69.63
2022-12-17T07:15:30.135Z,69.57
2022-12-17T07:18:16.834Z,76.15
2022-12-17T07:21:02.631Z,77.90
2022-12-17T07:23:48.255Z,71.43
2022-12-17T07:26:33.936Z,70.63
2022-12-17T07:29:20.902Z,67.03
2022-12-17T07:32:06.289Z,70.95
2022-12-17T07:34:51.983Z,75.07
2022-12-17T07:37:37.445Z,75.20
2022-12-17T07:40:24.050Z,72.90
2022-12-17T07:43:09.535Z,66.05
2022-12-17T07:45:56.380Z,69.68
2022-12-17T07:48:41.928Z,63.10
2022-12-17T07:51:27.424Z,69.07
2022-12-17T07:54:12.991Z,70.30
2022-12-17T07:56:58.412Z,66.90
2022-12-17T07:59:43.907Z,78.25
2022-12-17T08:02:30.970Z,70.15
2022-12-17T08:05:12.906Z,65.38
2022-12-17T08:07:58.159Z,64.95
2022-12-17T08:10:43.578Z,74.57
2022-12-17T08:13:29.202Z,76.93
2022-12-17T08:16:14.906Z,70.57
2022-12-17T08:19:01.779Z,74.60
2022-12-17T08:21:47.859Z,78.10
2022-12-17T08:24:33.367Z,75.50
2022-12-17T08:27:27.341Z,80.25
2022-12-17T08:30:13.078Z,79.57
2022-12-17T08:32:58.660Z,78.72
2022-12-17T08:35:45.478Z,78.45
2022-12-17T08:38:30.840Z,88.57
2022-12-17T08:41:18.248Z,81.75
2022-12-17T08:44:04.070Z,82.03
2022-12-17T08:46:49.319Z,98.60
2022-12-17T08:49:34.508Z,87.32
2022-12-17T08:52:21.532Z,88.28
2022-12-17T08:55:15.345Z,82.15
2022-12-17T08:58:01.057Z,96.57
2022-12-17T09:00:46.473Z,86.63
2022-12-17T09:03:31.915Z,92.15
2022-12-17T09:06:17.463Z,85.55
2022-12-17T09:09:04.552Z,80.65
2022-12-17T09:11:55.658Z,85.05
2022-12-17T09:14:40.722Z,84.68
2022-12-17T09:17:26.588Z,84.68
2022-12-17T09:20:12.008Z,100.18
2022-12-17T09:22:57.728Z,86.57
2022-12-17T09:25:58.253Z,86.28
2022-12-17T09:28:44.175Z,83.07
2022-12-17T09:31:35.364Z,94.53
2022-12-17T09:34:22.654Z,92.68
2022-12-17T09:37:07.966Z,97.63
2022-12-17T09:39:53.417Z,80.43
2022-12-17T09:42:53.507Z,81.45
2022-12-17T09:45:49.763Z,89.72
2022-12-17T09:48:41.576Z,89.13
2022-12-17T09:51:40.494Z,87.32
2022-12-17T09:54:33.281Z,92.15
2022-12-17T09:57:19.141Z,88.28
2022-12-17T10:00:06.226Z,82.70
2022-12-17T10:02:52.309Z,79.10
2022-12-17T10:05:42.042Z,88.72
2022-12-17T10:08:32.576Z,91.38
2022-12-17T10:11:34.542Z,82.57
2022-12-17T10:14:21.592Z,82.20
2022-12-17T10:17:11.876Z,78.70
2022-12-17T10:20:01.051Z,82.50
2022-12-17T10:22:47.068Z,77.70
2022-12-17T10:25:34.945Z,82.97
2022-12-17T10:28:22.941Z,87.07
2022-12-17T10:31:08.376Z,77.07
2022-12-17T10:33:58.506Z,84.25
2022-12-17T10:36:46.768Z,80.90
2022-12-17T10:39:39.325Z,78.63
2022-12-17T10:42:39.559Z,84.47
2022-12-17T10:45:42.384Z,84.63
2022-12-17T10:48:42.048Z,79.43
2022-12-17T10:51:39.779Z,82.75
2022-12-17T10:54:45.410Z,79.15
2022-12-17T10:57:46.004Z,81.65
2022-12-17T11:00:47.426Z,80.45
2022-12-17T11:03:43.800Z,83.72
2022-12-17T11:06:31.690Z,78.10
2022-12-17T11:09:21.471Z,88.65
2022-12-17T11:12:07.881Z,88.93
2022-12-17T11:15:02.557Z,86.05
2022-12-17T11:17:48.723Z,85.45
2022-12-17T11:20:43.062Z,88.82
2022-12-17T11:23:35.841Z,95.28
2022-12-17T11:26:27.489Z,94.90
2022-12-17T11:29:24.686Z,86.82
2022-12-17T11:32:21.950Z,88.82
2022-12-17T11:35:22.131Z,81.93
2022-12-17T11:38:15.696Z,83.28
2022-12-17T11:41:03.904Z,92.17
2022-12-17T11:43:59.327Z,83.18
2022-12-17T11:46:55.766Z,78.05
2022-12-17T11:49:49.155Z,85.70
2022-12-17T11:52:44.681Z,88.10
2022-12-17T11:55:39.005Z,88.18
2022-12-17T11:58:32.883Z,83.25
2022-12-17T12:01:28.560Z,77.88
2022-12-17T12:04:24.872Z,92.05
2022-12-17T12:07:19.208Z,77.68
2022-12-17T12:10:12.020Z,80.10
2022-12-17T12:13:08.976Z,93.85
2022-12-17T12:16:05.101Z,80.50
2022-12-17T12:19:01.629Z,81.85
2022-12-17T12:21:57.762Z,84.78
2022-12-17T12:25:01.022Z,82.97
2022-12-17T12:27:56.164Z,70.20
2022-12-17T12:30:45.042Z,73.97
2022-12-17T12:33:47.753Z,79.47
2022-12-17T12:36:37.313Z,86.20
2022-12-17T12:39:23.642Z,78.47
2022-12-17T12:42:13.139Z,79.93
2022-12-17T12:45:07.829Z,84.78
2022-12-17T12:48:02.792Z,78.07
2022-12-17T12:51:08.019Z,83.22
2022-12-17T12:53:54.696Z,82.05
2022-12-17T12:56:48.061Z,81.78
2022-12-17T12:59:50.593Z,72.15
2022-12-17T13:02:48.404Z,80.15
2022-12-17T13:05:34.185Z,76.72
2022-12-17T13:08:20.822Z,80.40
2022-12-17T13:10:51.286Z,81.65
2022-12-17T13:13:31.207Z,80.35
2022-12-17T13:16:03.398Z,95.60
2022-12-17T13:18:35.543Z,110.13
2022-12-17T13:21:06.004Z,91.22
2022-12-17T13:23:36.072Z,75.45
2022-12-17T13:26:23.743Z,83.03
2022-12-17T13:29:13.586Z,79.05
2022-12-17T13:31:57.115Z,69.57
2022-12-17T13:34:38.616Z,75.10
2022-12-17T13:37:13.910Z,82.00
2022-12-17T13:39:51.123Z,71.32
2022-12-17T13:42:28.141Z,81.18
2022-12-17T13:44:57.077Z,76.13
2022-12-17T13:47:27.839Z,74.57
2022-12-17T13:50:32.654Z,77.47
2022-12-17T13:52:45.451Z,94.00
2022-12-17T13:55:21.171Z,90.85
2022-12-17T13:57:51.581Z,99.32
2022-12-17T14:00:24.971Z,97.18
2022-12-17T14:02:54.152Z,86.15
2022-12-17T14:05:28.696Z,71.25
2022-12-17T14:08:00.516Z,86.28
2022-12-17T14:10:29.725Z,89.70
2022-12-17T14:13:06.085Z,71.70
2022-12-17T14:15:34.667Z,76.82
2022-12-17T14:18:03.465Z,81.03
2022-12-17T14:20:33.385Z,79.43
2022-12-17T14:23:03.914Z,68.90
2022-12-17T14:25:37.112Z,83.05
2022-12-17T14:28:08.444Z,77.45
2022-12-17T14:31:02.413Z,83.57
2022-12-17T14:33:29.853Z,84.57
2022-12-17T14:36:03.095Z,84.65
2022-12-17T14:38:38.341Z,80.68
2022-12-17T14:41:26.474Z,75.18
2022-12-17T14:44:00.909Z,83.53
2022-12-17T14:46:30.561Z,84.53
2022-12-17T14:49:02.853Z,79.65
2022-12-17T14:51:34.215Z,82.32
2022-12-17T14:54:29.164Z,84.97
2022-12-17T14:56:59.022Z,85.65
2022-12-17T14:59:35.829Z,74.22
2022-12-17T15:02:06.882Z,73.07
2022-12-17T15:04:37.660Z,74.65
2022-12-17T15:07:06.281Z,77.45
2022-12-17T15:09:37.261Z,73.55
2022-12-17T15:12:05.854Z,75.18
2022-12-17T15:14:35.132Z,76.22
2022-12-17T15:17:03.112Z,78.72
2022-12-17T15:19:31.084Z,83.25
2022-12-17T15:21:59.070Z,76.50
2022-12-17T15:24:27.189Z,70.05
2022-12-17T15:26:55.161Z,68.68
2022-12-17T15:29:24.292Z,74.28
2022-12-17T15:31:54.834Z,74.53
2022-12-17T15:34:22.916Z,80.13
2022-12-17T15:36:50.865Z,73.60
2022-12-17T15:39:19.001Z,71.57
2022-12-17T15:42:04.542Z,71.47
2022-12-17T15:44:32.480Z,77.18
2022-12-17T15:47:03.777Z,86.50
2022-12-17T15:49:31.784Z,82.88
2022-12-17T15:51:59.713Z,85.78
2022-12-17T15:54:27.780Z,85.78
2022-12-17T15:56:56.301Z,79.53
2022-12-17T15:59:24.188Z,84.68
2022-12-17T16:01:52.390Z,84.60
2022-12-17T16:04:25.150Z,61.08
2022-12-17T16:06:53.366Z,65.03
2022-12-17T16:09:24.551Z,64.88
2022-12-17T16:11:55.194Z,66.90
2022-12-17T16:14:23.758Z,74.25
2022-12-17T16:16:52.310Z,87.40
2022-12-17T16:19:22.925Z,79.82
2022-12-17T16:21:51.029Z,75.63
2022-12-17T16:24:19.072Z,76.82
2022-12-17T16:26:47.043Z,79.63
2022-12-17T16:29:15.250Z,77.60
2022-12-17T16:31:43.196Z,74.05
2022-12-17T16:34:11.942Z,75.82
2022-12-17T16:36:41.434Z,75.38
2022-12-17T16:39:09.419Z,77.13
2022-12-17T16:41:37.387Z,81.00
2022-12-17T16:44:06.367Z,79.00
2022-12-17T16:46:35.989Z,67.65
2022-12-17T16:49:06.960Z,71.10
2022-12-17T16:51:35.472Z,66.82
2022-12-17T16:54:07.943Z,69.03
2022-12-17T16:56:40.121Z,96.28
2022-12-17T16:59:09.487Z,86.45
2022-12-17T17:01:38.399Z,72.97
2022-12-17T17:04:08.207Z,70.47
2022-12-17T17:06:40.073Z,72.38
2022-12-17T17:09:09.580Z,74.07
2022-12-17T17:11:37.787Z,69.88
2022-12-17T17:14:06.761Z,76.43
2022-12-17T17:16:35.188Z,69.90
2022-12-17T17:19:03.922Z,64.00
2022-12-17T17:21:34.332Z,63.25
2022-12-17T17:24:05.099Z,63.88
2022-12-17T17:26:35.536Z,65.88
2022-12-17T17:29:04.567Z,63.20
2022-12-17T17:32:08.535Z,67.60
2022-12-17T17:34:21.041Z,70.30
2022-12-17T17:36:48.959Z,67.47
2022-12-17T17:39:17.135Z,72.75
2022-12-17T17:41:46.498Z,70.70
2022-12-17T17:44:15.203Z,71.10
2022-12-17T17:46:43.723Z,72.45
2022-12-17T17:49:12.655Z,67.25
2022-12-17T17:54:31.056Z,71.13
2022-12-17T17:57:00.331Z,77.03
2022-12-17T17:59:33.360Z,70.72
2022-12-17T18:04:30.862Z,80.97
2022-12-17T18:09:46.907Z,73.10
2022-12-17T18:12:33.775Z,73.78
2022-12-17T18:15:18.438Z,80.38
2022-12-17T18:17:48.851Z,70.20
2022-12-17T18:20:17.972Z,72.88
2022-12-17T18:22:47.170Z,81.10
2022-12-17T18:25:16.009Z,83.32
2022-12-17T18:27:45.523Z,83.43
2022-12-17T18:30:16.290Z,78.55
2022-12-17T18:32:44.730Z,69.95
2022-12-17T18:35:12.614Z,80.18
2022-12-17T18:37:40.594Z,73.30
2022-12-17T18:40:09.645Z,76.32
2022-12-17T18:42:55.380Z,77.13
2022-12-17T18:45:24.836Z,72.38
2022-12-17T18:47:53.624Z,89.97
2022-12-17T18:50:21.561Z,78.47
2022-12-17T18:52:49.564Z,81.35
2022-12-17T18:55:17.723Z,82.18
2022-12-17T18:57:45.639Z,85.03
2022-12-17T19:00:14.851Z,83.25
2022-12-17T19:02:44.406Z,72.00
2022-12-17T19:05:12.615Z,82.53
2022-12-17T19:07:40.535Z,85.30
2022-12-17T19:10:09.240Z,90.00
2022-12-17T19:12:37.361Z,81.75
2022-12-17T19:15:05.938Z,81.28
2022-12-17T19:17:33.864Z,80.57
2022-12-17T19:20:03.316Z,86.25
2022-12-17T19:22:31.247Z,75.88
2022-12-17T19:24:59.156Z,79.82
2022-12-17T19:27:28.798Z,77.18
2022-12-17T19:29:57.184Z,82.90
2022-12-17T19:32:25.324Z,78.05
2022-12-17T19:34:53.326Z,84.07
2022-12-17T19:37:22.672Z,94.05
2022-12-17T19:39:50.661Z,85.20
2022-12-17T19:42:34.978Z,83.93
2022-12-17T19:45:08.363Z,79.47
2022-12-17T19:47:36.241Z,77.03
2022-12-17T19:50:05.427Z,71.93
2022-12-17T19:52:35.320Z,75.15
2022-12-17T19:55:03.220Z,76.40
2022-12-17T19:57:31.753Z,75.15
2022-12-17T19:59:59.821Z,79.05
2022-12-17T20:02:32.585Z,85.60
2022-12-17T20:05:01.484Z,80.85
2022-12-17T20:07:29.434Z,87.57
2022-12-17T20:09:58.804Z,69.82
2022-12-17T20:12:26.739Z,88.25
2022-12-17T20:14:54.595Z,73.68
2022-12-17T20:17:22.493Z,70.78
2022-12-17T20:19:52.340Z,74.47
2022-12-17T20:22:21.043Z,72.25
2022-12-17T20:24:48.993Z,84.03
2022-12-17T20:27:28.653Z,81.82
2022-12-17T20:29:59.410Z,82.57
2022-12-17T20:32:28.241Z,89.25
2022-12-17T20:34:56.195Z,82.55
2022-12-17T20:37:24.123Z,75.53
2022-12-17T20:39:52.082Z,75.47
2022-12-17T20:42:21.428Z,81.85
2022-12-17T20:44:53.359Z,88.78
2022-12-17T20:47:21.820Z,79.35
2022-12-17T20:49:49.800Z,75.78
2022-12-17T20:52:17.824Z,80.65
2022-12-17T20:54:45.867Z,73.55
2022-12-17T20:57:13.744Z,68.75
2022-12-17T20:59:43.100Z,74.55
2022-12-17T21:02:11.416Z,78.75
2022-12-17T21:04:39.394Z,74.32
2022-12-17T21:07:07.346Z,79.45
2022-12-17T21:09:35.344Z,80.03
2022-12-17T21:12:03.256Z,79.75
2022-12-17T21:14:35.556Z,74.53
2022-12-17T21:17:05.464Z,84.65
2022-12-17T21:19:33.646Z,72.07
2022-12-17T21:22:01.848Z,76.65
2022-12-17T21:24:29.814Z,74.03
2022-12-17T21:26:57.833Z,70.05
2022-12-17T21:29:25.834Z,73.38
2022-12-17T21:31:53.916Z,65.47
2022-12-17T21:34:25.264Z,76.13
2022-12-17T21:36:53.472Z,65.32
2022-12-17T21:39:21.667Z,69.00
2022-12-17T21:42:04.470Z,73.53
2022-12-17T21:44:32.481Z,66.88
2022-12-17T21:47:00.715Z,69.85
2022-12-17T21:49:29.969Z,64.47
2022-12-17T21:52:00.069Z,69.80
2022-12-17T21:54:28.359Z,63.45
2022-12-17T21:56:56.250Z,68.38
2022-12-17T21:59:24.334Z,62.65
2022-12-17T22:01:53.694Z,70.45
2022-12-17T22:04:21.769Z,67.57
2022-12-17T22:06:54.485Z,68.57
2022-12-17T22:09:43.127Z,64.55
2022-12-17T22:12:32.198Z,77.60
2022-12-17T22:15:00.082Z,73.20
2022-12-17T22:17:28.499Z,77.40
2022-12-17T22:19:56.467Z,73.18
2022-12-17T22:22:25.851Z,74.55
2022-12-17T22:24:53.842Z,74.25
2022-12-17T22:27:21.901Z,67.93
2022-12-17T22:30:07.675Z,64.47
2022-12-17T22:32:52.887Z,67.45
2022-12-17T22:37:16.917Z,64.28
2022-12-17T22:42:31.223Z,61.60
2022-12-17T22:44:35.377Z,67.20
2022-12-17T22:44:45.327Z,74.05
2022-12-17T22:46:43.863Z,70.22
2022-12-17T22:49:12.243Z,69.18
2022-12-17T22:51:42.056Z,74.57
2022-12-17T22:54:13.959Z,68.03
2022-12-17T22:57:10.313Z,68.70
2022-12-17T22:59:31.944Z,75.32
2022-12-17T23:01:59.909Z,74.75
2022-12-17T23:04:27.955Z,64.47
2022-12-17T23:06:55.964Z,75.45
2022-12-17T23:09:25.135Z,76.00
2022-12-17T23:11:53.115Z,68.72
2022-12-17T23:14:21.440Z,70.03
2022-12-17T23:16:49.403Z,69.15
2022-12-17T23:19:17.321Z,62.67
2022-12-17T23:21:45.259Z,72.30
2022-12-17T23:24:13.281Z,68.95
2022-12-17T23:26:42.492Z,72.15
2022-12-17T23:29:19.389Z,72.40
2022-12-17T23:31:47.982Z,75.47
2022-12-17T23:34:16.182Z,70.07
2022-12-17T23:36:44.211Z,68.13
2022-12-17T23:39:12.371Z,67.80
2022-12-17T23:41:40.302Z,72.07
2022-12-17T23:44:09.539Z,70.15
2022-12-17T23:46:37.781Z,71.90
2022-12-17T23:49:06.202Z,74.53
2022-12-17T23:51:34.578Z,66.82
2022-12-17T23:54:02.617Z,67.65
2022-12-17T23:56:30.536Z,83.00
2022-12-17T23:59:00.162Z,68.95
